KCHA/CHA METAR and TAF weather

Enter ICAO airport designator
Station Type Date Time Source
KCHA METAR 2019/02/20 23:08 UTC NOAA

KCHA 202308Z 00000KT 3SM -RA BR BKN009 OVC014 08/07 A3000 RMK AO2 P0002 T00780067 $


Station Type Date Time Source
KCHA Decoded METAR 2019/02/20 23:08 UTC NOAA

LOVELL FIELD, TN, United States (KCHA) 35-02N 085-12W 210M
Feb 20, 2019 - 06:08 PM EST / 2019.02.20 2308 UTC
Wind: Calm:0
Visibility: 3 mile(s):0
Sky conditions: overcast
Weather: light rain; mist
Precipitation last hour: 0.02 inches
Temperature: 46.0 F (7.8 C)
Dew Point: 44.1 F (6.7 C)
Relative Humidity: 92%
Pressure (altimeter): 30 in. Hg (1015 hPa)
ob: KCHA 202308Z 00000KT 3SM -RA BR BKN009 OVC014 08/07 A3000 RMK AO2 P0002 T00780067
cycle: 23

Station Type Date Time Source
KCHA TAF 2019/02/20 23:52 UTC NOAA

TAF
AMD KCHA 202250Z 2023/2118 19007KT 4SM -RA SCT011 OVC022 WS020/22040KT
TEMPO 2023/2102 2SM RA BR OVC011
FM210200 17011KT 3SM RA OVC010 WS020/23035KT
FM210600 21003KT 5SM -RA OVC010
FM211200 00000KT P6SM OVC008
FM211700 01005KT 6SM BR OVC021


Example: see airport list